Time;durP1;ratioP1;P1;durP2;ratioP2;P2;SDS_P1;SDS_P2;PMS_P1;PMS_P2;Temp;Humidity;BMP_temperature;BMP_pressure;BME280_temperature;BME280_humidity;BME280_pressure;Samples;Min_cycle;Max_cycle;Signal;HPM_P1;HPM_P2
2023/09/22 00:00:10;;;;;;;28.67;18.70;;;;;;;17.20;76.32;100475.25;5056377;28;20029;-63
2023/09/22 00:02:38;;;;;;;24.45;19.10;;;;;;;17.16;76.04;100479.28;5055814;28;20120;-63
2023/09/22 00:05:04;;;;;;;25.75;19.70;;;;;;;17.18;76.74;100485.38;5055686;28;20451;-62
2023/09/22 00:07:30;;;;;;;25.60;20.35;;;;;;;17.17;76.81;100480.97;5055472;28;20029;-62
2023/09/22 00:09:56;;;;;;;24.70;19.38;;;;;;;17.11;76.72;100477.00;5055718;28;20398;-63
2023/09/22 00:12:21;;;;;;;24.35;19.38;;;;;;;17.08;77.02;100482.72;5055140;28;20037;-63
2023/09/22 00:14:47;;;;;;;22.30;18.70;;;;;;;17.06;77.11;100485.56;5055309;28;20467;-63
2023/09/22 00:17:13;;;;;;;26.58;19.60;;;;;;;17.04;77.26;100481.31;5055429;28;20033;-62
2023/09/22 00:19:38;;;;;;;26.17;18.52;;;;;;;16.98;77.28;100482.78;5055481;28;20178;-63
2023/09/22 00:22:05;;;;;;;33.17;19.10;;;;;;;17.00;77.65;100488.00;5055360;28;20029;-62
2023/09/22 00:24:31;;;;;;;25.17;18.75;;;;;;;16.97;77.58;100485.56;5055441;28;20044;-61
2023/09/22 00:26:57;;;;;;;26.13;20.30;;;;;;;16.96;77.90;100489.28;5055221;28;20025;-63
2023/09/22 00:29:22;;;;;;;26.70;19.45;;;;;;;16.94;77.83;100492.16;5055314;28;20328;-63
2023/09/22 00:31:48;;;;;;;26.38;19.88;;;;;;;16.92;78.06;100484.19;5054527;28;20060;-62
2023/09/22 00:34:13;;;;;;;25.73;20.02;;;;;;;16.91;78.02;100489.75;5054993;28;20347;-63
2023/09/22 00:36:39;;;;;;;26.27;19.08;;;;;;;16.69;77.86;100458.53;5055406;28;20033;-64
2023/09/22 00:39:04;;;;;;;27.55;19.48;;;;;;;16.89;78.59;100489.91;5055268;28;20033;-63
2023/09/22 00:41:30;;;;;;;29.48;20.15;;;;;;;16.90;78.76;100488.88;5055352;28;20239;-62
2023/09/22 00:43:56;;;;;;;28.75;20.23;;;;;;;16.91;78.73;100489.75;5054373;28;20036;-63
2023/09/22 00:46:26;;;;;;;28.13;20.33;;;;;;;16.91;78.88;100481.66;5054794;28;20033;-61
2023/09/22 00:48:53;;;;;;;29.48;20.17;;;;;;;16.98;78.81;100495.41;5055135;28;20036;-63
2023/09/22 00:51:19;;;;;;;26.73;19.48;;;;;;;17.04;78.51;100492.97;5054911;28;20037;-62
2023/09/22 00:53:47;;;;;;;24.63;19.88;;;;;;;17.16;78.32;100484.69;5054573;28;20048;-61
2023/09/22 00:56:15;;;;;;;25.77;18.95;;;;;;;17.18;77.07;100475.41;5055127;28;20025;-61
2023/09/22 00:58:41;;;;;;;26.50;18.35;;;;;;;17.28;76.66;100488.88;5055103;28;20029;-62
2023/09/22 01:01:06;;;;;;;26.13;19.15;;;;;;;17.34;76.38;100482.00;5054453;28;20386;-62
2023/09/22 01:03:32;;;;;;;23.05;19.17;;;;;;;17.46;76.36;100475.34;5054976;28;20029;-61
2023/09/22 01:05:58;;;;;;;22.42;18.65;;;;;;;17.59;75.92;100480.41;5054989;28;20029;-62
2023/09/22 01:08:23;;;;;;;29.10;19.45;;;;;;;17.69;75.62;100482.19;5054569;28;20418;-62
2023/09/22 01:10:48;;;;;;;27.52;17.52;;;;;;;17.74;74.79;100479.88;5054378;28;20025;-62
2023/09/22 01:13:14;;;;;;;27.35;17.73;;;;;;;17.78;74.80;100479.41;5054462;28;20049;-62
2023/09/22 01:15:41;;;;;;;22.45;18.00;;;;;;;17.80;74.37;100473.81;5054043;28;20359;-63
2023/09/22 01:18:07;;;;;;;25.48;18.75;;;;;;;17.87;74.59;100483.06;5054546;28;20033;-61
2023/09/22 01:20:43;;;;;;;23.75;18.90;;;;;;;17.97;74.72;100485.69;5054086;28;20397;-63
2023/09/22 01:23:12;;;;;;;26.23;17.40;;;;;;;17.88;74.54;100482.03;5054725;28;20530;-62
2023/09/22 01:25:45;;;;;;;23.20;17.80;;;;;;;17.85;74.40;100482.38;5053648;28;20067;-62
2023/09/22 01:28:12;;;;;;;24.20;18.33;;;;;;;17.81;74.38;100486.34;5054432;28;20056;-63
2023/09/22 01:30:41;;;;;;;27.45;18.20;;;;;;;17.79;74.26;100488.38;5053796;28;20109;-61
2023/09/22 01:33:07;;;;;;;21.70;16.98;;;;;;;17.78;74.15;100486.69;5054292;28;20028;-64
2023/09/22 01:35:35;;;;;;;22.50;18.35;;;;;;;17.78;74.30;100486.69;5054219;28;20044;-62
2023/09/22 01:38:15;;;;;;;22.52;17.23;;;;;;;17.88;74.46;100495.59;5054218;28;20037;-62
2023/09/22 01:40:42;;;;;;;19.08;17.08;;;;;;;17.78;74.36;100492.09;5052845;28;20082;-62
2023/09/22 01:43:08;;;;;;;22.85;18.02;;;;;;;17.76;74.06;100486.84;5054275;28;20037;-62
2023/09/22 01:45:34;;;;;;;27.75;17.95;;;;;;;17.59;74.39;100455.19;5054390;28;20033;-61
2023/09/22 01:47:59;;;;;;;29.55;19.45;;;;;;;17.81;74.67;100489.06;5053739;28;20048;-63
2023/09/22 01:50:25;;;;;;;23.05;18.63;;;;;;;17.81;74.67;100496.38;5053588;28;20467;-62
2023/09/22 01:52:52;;;;;;;24.15;19.67;;;;;;;17.81;74.66;100493.66;5053786;28;20040;-62
2023/09/22 01:55:18;;;;;;;28.05;20.20;;;;;;;17.75;74.65;100490.56;5053872;28;20119;-61
2023/09/22 01:57:49;;;;;;;23.67;18.58;;;;;;;17.79;74.55;100491.09;5053302;28;20110;-59
2023/09/22 02:00:16;;;;;;;23.58;19.10;;;;;;;17.67;74.62;100495.03;5053799;28;20067;-63
2023/09/22 02:02:43;;;;;;;26.80;18.90;;;;;;;17.64;75.27;100504.31;5053503;28;20029;-64
2023/09/22 02:05:11;;;;;;;24.48;18.80;;;;;;;17.61;75.38;100500.06;5053498;28;20029;-63
2023/09/22 02:07:38;;;;;;;24.35;19.30;;;;;;;17.59;75.40;100499.34;5053493;28;20025;-63
2023/09/22 02:10:05;;;;;;;25.60;19.08;;;;;;;17.58;75.57;100494.09;5053168;28;20145;-64
2023/09/22 02:12:31;;;;;;;26.20;19.55;;;;;;;17.58;75.76;100489.53;5053282;28;20626;-63
2023/09/22 02:14:57;;;;;;;27.15;20.00;;;;;;;17.58;75.56;100491.41;5053171;28;20114;-63
2023/09/22 02:17:23;;;;;;;26.02;20.27;;;;;;;17.57;75.56;100485.13;5052203;28;20452;-62
2023/09/22 02:19:49;;;;;;;23.02;18.70;;;;;;;17.52;75.71;100492.03;5053474;28;20104;-63
2023/09/22 02:22:15;;;;;;;23.85;19.25;;;;;;;17.33;75.45;100481.16;5053264;28;20040;-62
2023/09/22 02:24:40;;;;;;;25.27;19.50;;;;;;;17.44;75.95;100506.31;5053054;28;20432;-63
2023/09/22 02:27:06;;;;;;;24.25;19.63;;;;;;;17.40;76.22;100499.50;5053689;28;20094;-64
2023/09/22 02:29:31;;;;;;;29.95;20.60;;;;;;;17.43;76.11;100504.59;5053094;28;20032;-64
2023/09/22 02:31:57;;;;;;;25.40;19.67;;;;;;;17.41;75.90;100483.09;5053103;28;20028;-65
2023/09/22 02:34:22;;;;;;;23.60;18.70;;;;;;;17.58;75.60;100508.47;5053342;28;20407;-61
2023/09/22 02:36:49;;;;;;;25.48;18.55;;;;;;;17.62;75.06;100503.63;5053127;28;20114;-62
2023/09/22 02:39:16;;;;;;;25.75;19.92;;;;;;;17.69;75.26;100511.97;5052983;28;20489;-63
2023/09/22 02:41:42;;;;;;;21.60;18.17;;;;;;;17.73;74.85;100516.09;5053197;28;20550;-63
2023/09/22 02:44:09;;;;;;;22.98;18.75;;;;;;;17.75;74.56;100522.19;5052956;28;20048;-63
2023/09/22 02:46:35;;;;;;;23.23;17.65;;;;;;;17.73;73.94;100507.97;5051869;28;20037;-64
2023/09/22 02:49:01;;;;;;;26.40;17.90;;;;;;;17.77;74.02;100515.63;5051780;28;20098;-62
2023/09/22 02:51:26;;;;;;;24.67;17.40;;;;;;;17.59;74.18;100476.84;5052249;28;20063;-64
2023/09/22 02:53:55;;;;;;;22.02;17.92;;;;;;;17.88;74.51;100511.84;5052777;28;20041;-62
2023/09/22 02:56:21;;;;;;;24.08;19.25;;;;;;;17.88;74.37;100511.84;5052435;28;20029;-63
2023/09/22 02:58:48;;;;;;;24.30;19.58;;;;;;;17.76;74.30;100485.97;5053048;28;20109;-63
2023/09/22 03:01:14;;;;;;;23.48;18.08;;;;;;;17.94;73.79;100510.34;5052775;28;20369;-63
2023/09/22 03:03:43;;;;;;;24.65;17.75;;;;;;;17.81;73.74;100483.66;5052736;28;20375;-62
2023/09/22 03:06:11;;;;;;;23.58;19.00;;;;;;;18.02;73.48;100517.75;5052125;28;20033;-63
2023/09/22 03:08:37;;;;;;;27.05;19.60;;;;;;;18.03;73.81;100520.31;5052493;28;20057;-61
2023/09/22 03:11:02;;;;;;;26.45;19.40;;;;;;;18.05;73.47;100521.00;5052822;28;20434;-62
2023/09/22 03:13:28;;;;;;;25.33;18.83;;;;;;;18.13;73.16;100530.19;5052374;28;20049;-62
2023/09/22 03:15:54;;;;;;;26.02;18.27;;;;;;;18.16;73.09;100530.75;5052190;28;20448;-63
2023/09/22 03:18:19;;;;;;;27.42;19.83;;;;;;;18.19;72.99;100530.44;5052913;28;20148;-63
2023/09/22 03:20:46;;;;;;;29.20;19.55;;;;;;;18.18;73.11;100528.72;5035494;28;20179;-62
2023/09/22 03:23:12;;;;;;;23.85;19.13;;;;;;;18.16;73.31;100535.31;5052550;28;20029;-62
2023/09/22 03:25:39;;;;;;;26.00;20.17;;;;;;;18.13;73.22;100535.63;5051929;28;20033;-63
2023/09/22 03:28:05;;;;;;;26.33;19.67;;;;;;;18.11;73.26;100535.78;5052264;28;20312;-64
2023/09/22 03:30:31;;;;;;;26.98;20.02;;;;;;;18.12;73.36;100533.91;5052888;28;20190;-63
2023/09/22 03:32:58;;;;;;;27.13;20.23;;;;;;;18.11;73.50;100533.06;5052453;28;20029;-62
2023/09/22 03:35:25;;;;;;;28.50;20.00;;;;;;;18.12;73.42;100542.03;5051130;28;20025;-62
2023/09/22 03:37:52;;;;;;;25.52;20.48;;;;;;;18.13;73.33;100538.31;5052343;28;20037;-59
2023/09/22 03:40:30;;;;;;;32.47;21.20;;;;;;;18.12;73.24;100534.78;5051860;28;20033;-63
2023/09/22 03:42:58;;;;;;;31.33;21.95;;;;;;;18.26;72.89;100543.34;5052257;28;20041;-65
2023/09/22 03:45:24;;;;;;;32.63;21.20;;;;;;;18.22;72.84;100532.81;5052067;28;20040;-62
2023/09/22 03:47:49;;;;;;;30.70;20.83;;;;;;;18.33;72.67;100539.03;5051339;28;20360;-63
2023/09/22 03:50:15;;;;;;;32.42;21.35;;;;;;;18.44;72.41;100538.75;5051716;28;20451;-62
2023/09/22 03:52:41;;;;;;;28.42;21.55;;;;;;;18.33;71.99;100506.50;5051706;28;20068;-63
2023/09/22 03:55:09;;;;;;;33.20;21.30;;;;;;;18.69;71.61;100549.78;5051972;28;20036;-64
2023/09/22 03:57:34;;;;;;;30.33;21.95;;;;;;;19.09;70.11;100539.34;5051866;28;20502;-62
2023/09/22 04:00:00;;;;;;;35.38;22.02;;;;;;;19.88;67.60;100549.97;5051868;28;20033;-62
2023/09/22 04:02:27;;;;;;;29.13;21.05;;;;;;;20.85;64.04;100551.16;5051734;28;20363;-62
2023/09/22 04:04:54;;;;;;;35.15;20.80;;;;;;;21.67;61.08;100540.13;5052056;28;20029;-60
2023/09/22 04:07:19;;;;;;;26.17;19.25;;;;;;;22.49;58.20;100545.00;5051780;28;20047;-63
2023/09/22 04:09:45;;;;;;;24.77;19.27;;;;;;;23.16;56.06;100538.84;5051918;28;20075;-63
2023/09/22 04:12:11;;;;;;;28.13;19.52;;;;;;;23.88;53.80;100548.16;5051340;28;20037;-62
2023/09/22 04:14:37;;;;;;;30.67;18.20;;;;;;;24.34;51.77;100524.16;5051831;28;20037;-62
2023/09/22 04:17:03;;;;;;;24.75;18.25;;;;;;;25.04;50.32;100554.38;5051643;28;20125;-62
2023/09/22 04:19:33;;;;;;;22.83;17.63;;;;;;;25.61;48.88;100556.16;5052142;28;20052;-63
2023/09/22 04:22:00;;;;;;;26.15;17.95;;;;;;;26.04;47.50;100554.97;5055750;28;20025;-63
2023/09/22 04:24:32;;;;;;;25.33;17.63;;;;;;;26.44;46.64;100555.06;5055330;28;20079;-62
2023/09/22 04:27:02;;;;;;;22.70;17.20;;;;;;;26.91;45.38;100560.56;5055331;28;20115;-62
2023/09/22 04:29:27;;;;;;;23.15;17.50;;;;;;;27.55;43.74;100548.94;5055517;28;20025;-63
2023/09/22 04:31:53;;;;;;;21.13;16.77;;;;;;;28.16;42.32;100554.94;5055812;28;20035;-63
2023/09/22 04:34:19;;;;;;;18.70;15.38;;;;;;;28.78;40.73;100564.34;5055177;28;20033;-62
2023/09/22 04:36:45;;;;;;;20.40;15.82;;;;;;;29.50;39.31;100560.22;5055198;28;20104;-62
2023/09/22 04:39:10;;;;;;;18.00;15.45;;;;;;;29.92;37.88;100560.28;5054861;28;20057;-63
2023/09/22 04:41:36;;;;;;;20.35;15.60;;;;;;;29.88;37.76;100509.38;5054988;28;20032;-62
2023/09/22 04:44:02;;;;;;;22.38;15.18;;;;;;;30.69;36.89;100557.81;5054905;28;20028;-63
2023/09/22 04:46:28;;;;;;;20.83;15.07;;;;;;;31.28;35.16;100559.69;5055500;28;20356;-62
2023/09/22 04:48:55;;;;;;;22.10;15.32;;;;;;;31.98;33.94;100562.47;5055329;28;20037;-62
2023/09/22 04:51:21;;;;;;;19.75;14.70;;;;;;;32.20;33.31;100565.34;5054826;28;20055;-63
2023/09/22 04:53:47;;;;;;;16.67;14.40;;;;;;;32.77;32.31;100568.19;5054889;28;20432;-63
2023/09/22 04:56:12;;;;;;;15.85;13.45;;;;;;;33.39;31.22;100557.13;5055168;28;20123;-62
2023/09/22 04:58:38;;;;;;;15.27;13.43;;;;;;;33.90;30.25;100554.94;5054999;28;20036;-62
2023/09/22 05:01:04;;;;;;;18.38;13.38;;;;;;;34.34;29.76;100564.22;5054351;28;20029;-63
2023/09/22 05:03:31;;;;;;;16.48;12.68;;;;;;;34.80;28.78;100566.53;5054688;28;20407;-63
2023/09/22 05:06:06;;;;;;;16.90;13.45;;;;;;;35.35;28.84;100575.47;5054675;28;20025;-62
2023/09/22 05:08:33;;;;;;;17.85;12.68;;;;;;;35.47;27.82;100566.88;5054768;28;20053;-63
2023/09/22 05:11:01;;;;;;;17.92;12.30;;;;;;;35.74;26.96;100557.50;5054037;28;20039;-63
2023/09/22 05:13:27;;;;;;;16.45;13.35;;;;;;;35.97;26.26;100546.13;5053927;28;20060;-62
2023/09/22 05:15:52;;;;;;;19.45;13.73;;;;;;;36.63;25.85;100569.56;5053813;28;20051;-63
2023/09/22 05:18:18;;;;;;;16.02;13.57;;;;;;;37.01;24.65;100575.66;5054279;28;20051;-63
2023/09/22 05:20:44;;;;;;;15.60;13.10;;;;;;;37.51;24.70;100585.25;5053910;28;20036;-64
2023/09/22 05:23:09;;;;;;;23.58;15.23;;;;;;;37.98;23.70;100578.28;5054226;28;20344;-63
2023/09/22 05:25:41;;;;;;;16.67;14.55;;;;;;;38.51;23.54;100581.50;5054510;28;20359;-63
2023/09/22 05:28:10;;;;;;;17.40;14.73;;;;;;;38.62;22.64;100589.50;5054104;28;20097;-65
2023/09/22 05:30:38;;;;;;;20.30;14.25;;;;;;;38.93;22.16;100588.38;5053741;28;20029;-64
2023/09/22 05:33:07;;;;;;;18.48;14.27;;;;;;;39.14;22.15;100582.53;5053959;28;20091;-64
2023/09/22 05:35:36;;;;;;;20.10;14.18;;;;;;;39.60;21.42;100587.56;5054440;28;20424;-63
2023/09/22 05:38:03;;;;;;;18.63;14.52;;;;;;;40.09;20.91;100586.56;5053973;28;20060;-64
2023/09/22 05:40:32;;;;;;;21.25;14.88;;;;;;;40.56;20.16;100592.25;5053684;28;20043;-64
2023/09/22 05:42:58;;;;;;;17.85;13.20;;;;;;;40.95;20.02;100592.97;5054085;28;20033;-60
2023/09/22 05:45:23;;;;;;;16.98;13.70;;;;;;;41.47;19.12;100592.72;5054667;28;20395;-63
2023/09/22 05:47:49;;;;;;;18.63;14.50;;;;;;;41.79;18.88;100585.31;5053599;28;20029;-63
2023/09/22 05:50:14;;;;;;;17.67;13.93;;;;;;;41.87;18.62;100597.78;5053746;28;20048;-63
2023/09/22 05:52:40;;;;;;;17.85;14.57;;;;;;;41.97;18.37;100600.34;5053432;28;20439;-62
2023/09/22 05:55:06;;;;;;;17.25;14.13;;;;;;;42.15;17.99;100601.31;5053187;28;20166;-64
2023/09/22 05:57:34;;;;;;;18.80;14.73;;;;;;;42.72;17.43;100601.84;5053732;28;20074;-63
2023/09/22 05:59:59;;;;;;;17.00;13.15;;;;;;;43.27;17.06;100600.59;5053739;28;20029;-62
2023/09/22 06:02:25;;;;;;;16.88;14.18;;;;;;;43.60;17.16;100597.34;5052965;28;20368;-63
2023/09/22 06:04:55;;;;;;;15.65;13.43;;;;;;;44.08;16.77;100602.38;5053608;28;20437;-62
2023/09/22 06:07:22;;;;;;;15.98;13.52;;;;;;;44.10;15.99;100597.22;5053121;28;20356;-65
2023/09/22 06:09:48;;;;;;;19.40;13.48;;;;;;;44.51;15.75;100595.00;5053576;28;20028;-63
2023/09/22 06:12:14;;;;;;;16.10;13.48;;;;;;;45.20;15.05;100603.56;5053210;28;20029;-64
2023/09/22 06:14:40;;;;;;;20.75;13.98;;;;;;;45.45;14.82;100596.13;5053263;28;20033;-63
2023/09/22 06:17:05;;;;;;;20.20;13.15;;;;;;;45.95;14.57;100605.75;5053435;28;20161;-64
2023/09/22 06:19:31;;;;;;;16.65;14.07;;;;;;;46.23;14.28;100610.00;5053438;28;20101;-61
2023/09/22 06:21:57;;;;;;;16.20;12.10;;;;;;;46.22;14.05;100606.34;5053197;28;20098;-64
2023/09/22 06:24:24;;;;;;;16.23;13.18;;;;;;;46.37;14.21;100607.69;5053269;28;20542;-62
2023/09/22 06:26:50;;;;;;;20.70;13.40;;;;;;;46.29;13.84;100598.09;5053380;28;20067;-64
2023/09/22 06:29:18;;;;;;;17.50;12.95;;;;;;;46.65;13.61;100615.56;5052950;28;20108;-63
2023/09/22 06:31:43;;;;;;;19.27;13.80;;;;;;;47.03;13.36;100607.94;5052677;28;20500;-63
2023/09/22 06:34:09;;;;;;;15.77;13.15;;;;;;;47.26;13.42;100607.44;5053348;28;20039;-64
2023/09/22 06:36:35;;;;;;;16.88;12.82;;;;;;;47.33;13.25;100613.38;5052789;28;20040;-61
2023/09/22 06:39:05;;;;;;;25.65;14.38;;;;;;;47.38;13.11;100613.13;5052666;28;20402;-61
2023/09/22 06:41:30;;;;;;;15.70;14.02;;;;;;;47.44;13.09;100610.88;5053381;28;20025;-63
2023/09/22 06:43:56;;;;;;;19.73;13.55;;;;;;;47.79;12.80;100606.66;5052352;28;20035;-62
2023/09/22 06:46:22;;;;;;;18.25;14.63;;;;;;;48.08;12.54;100605.50;5052633;28;20033;-63
2023/09/22 06:48:47;;;;;;;18.35;13.95;;;;;;;48.36;12.48;100615.19;5052701;28;20035;-63
2023/09/22 06:51:23;;;;;;;27.77;15.43;;;;;;;48.89;11.51;100614.16;5053016;28;20091;-64
2023/09/22 06:53:49;;;;;;;19.88;14.90;;;;;;;49.36;11.87;100606.75;5052744;28;20045;-63
2023/09/22 06:56:17;;;;;;;27.83;14.05;;;;;;;49.54;11.39;100610.88;5052406;28;20025;-63
2023/09/22 06:58:43;;;;;;;20.38;14.70;;;;;;;49.76;11.62;100614.19;5052355;28;20053;-63
2023/09/22 07:01:13;;;;;;;22.95;13.85;;;;;;;50.11;11.40;100613.28;5052814;28;20403;-61
2023/09/22 07:03:40;;;;;;;25.90;14.82;;;;;;;49.89;11.32;100606.34;5052618;28;20048;-62
2023/09/22 07:06:08;;;;;;;22.08;15.73;;;;;;;49.79;11.33;100613.41;5052023;28;20123;-62
2023/09/22 07:08:35;;;;;;;29.88;14.40;;;;;;;49.87;10.96;100611.59;5052135;28;20355;-62
2023/09/22 07:11:08;;;;;;;22.48;13.73;;;;;;;50.03;11.49;100610.66;5052697;28;20037;-61
2023/09/22 07:13:37;;;;;;;23.17;13.55;;;;;;;50.50;11.15;100625.81;5052423;28;20443;-63
2023/09/22 07:16:05;;;;;;;25.80;15.65;;;;;;;50.41;11.06;100618.34;5052037;28;20044;-63
2023/09/22 07:18:30;;;;;;;20.58;14.25;;;;;;;50.15;11.09;100618.19;5052507;28;20098;-64
2023/09/22 07:20:56;;;;;;;23.38;15.68;;;;;;;50.31;11.31;100618.97;5052881;28;20041;-64
2023/09/22 07:23:23;;;;;;;23.67;13.85;;;;;;;50.32;10.83;100617.75;5052453;28;20431;-63
2023/09/22 07:26:11;;;;;;;19.35;11.43;;;;;;;50.86;11.25;100619.94;5052103;28;20052;-63
2023/09/22 07:28:37;;;;;;;13.07;11.10;;;;;;;49.94;10.98;100625.16;5052196;28;20051;-63
2023/09/22 07:31:18;;;;;;;18.98;11.40;;;;;;;49.81;10.95;100619.56;5052704;28;20033;-64
2023/09/22 07:33:44;;;;;;;19.17;11.65;;;;;;;48.91;11.49;100618.28;5052124;28;20110;-63
2023/09/22 07:36:10;;;;;;;16.98;13.00;;;;;;;48.40;11.55;100611.28;5051835;28;20072;-65
2023/09/22 07:38:36;;;;;;;17.10;11.63;;;;;;;47.97;11.66;100604.34;5052242;28;20021;-62
2023/09/22 07:41:02;;;;;;;15.18;11.90;;;;;;;47.90;12.07;100630.53;5052923;28;20028;-62
2023/09/22 07:43:29;;;;;;;17.30;11.32;;;;;;;47.39;12.50;100619.63;5050409;28;20120;-63
2023/09/22 07:45:56;;;;;;;14.02;10.85;;;;;;;46.57;12.79;100619.31;5052127;28;20136;-64
2023/09/22 07:48:22;;;;;;;17.52;10.85;;;;;;;45.42;13.78;100619.44;5051148;28;20029;-63
2023/09/22 07:50:47;;;;;;;18.58;11.80;;;;;;;43.73;15.50;100617.31;5051558;28;20407;-64
2023/09/22 07:53:13;;;;;;;16.42;11.65;;;;;;;41.33;16.94;100623.66;5052004;28;20086;-63
2023/09/22 07:55:41;;;;;;;25.63;11.90;;;;;;;38.89;19.07;100627.28;5055942;28;20363;-64
2023/09/22 07:58:06;;;;;;;19.00;11.25;;;;;;;36.86;21.33;100623.94;5055474;28;20032;-61
2023/09/22 08:00:33;;;;;;;12.88;10.40;;;;;;;35.21;23.02;100624.41;5056062;28;20029;-64
2023/09/22 08:02:59;;;;;;;15.75;9.10;;;;;;;33.56;24.32;100596.78;5055516;28;20037;-63
2023/09/22 08:05:25;;;;;;;16.25;8.63;;;;;;;32.56;25.81;100623.31;5055874;28;20032;-64
2023/09/22 08:07:52;;;;;;;17.10;9.82;;;;;;;31.73;26.67;100632.84;5055512;28;20057;-64
2023/09/22 08:10:18;;;;;;;15.20;9.70;;;;;;;30.91;27.36;100626.34;5055517;28;20522;-63
2023/09/22 08:12:45;;;;;;;18.20;8.98;;;;;;;30.34;28.43;100634.03;5055355;28;20045;-63
2023/09/22 08:15:11;;;;;;;17.20;9.32;;;;;;;29.86;29.11;100627.44;5055357;28;20059;-63
2023/09/22 08:17:36;;;;;;;12.27;8.10;;;;;;;29.53;28.26;100627.88;5055447;28;20342;-58
2023/09/22 08:20:07;;;;;;;17.35;7.95;;;;;;;29.20;28.02;100635.44;5055760;28;20032;-62
2023/09/22 08:22:32;;;;;;;15.48;8.60;;;;;;;28.92;28.45;100634.00;5054810;28;20387;-62
2023/09/22 08:24:58;;;;;;;14.35;8.27;;;;;;;28.69;28.80;100632.69;5055176;28;20120;-63
2023/09/22 08:27:24;;;;;;;9.27;7.45;;;;;;;28.46;29.04;100636.06;5055543;28;20033;-63
2023/09/22 08:29:50;;;;;;;14.52;8.35;;;;;;;28.28;29.97;100637.66;5054697;28;20028;-63
2023/09/22 08:32:17;;;;;;;17.75;7.63;;;;;;;28.14;29.74;100645.13;5055008;28;20028;-64
2023/09/22 08:34:42;;;;;;;18.05;8.27;;;;;;;28.02;30.05;100644.16;5054989;28;20028;-62
2023/09/22 08:37:08;;;;;;;17.50;8.73;;;;;;;27.91;30.17;100643.75;5055479;28;20024;-59
2023/09/22 08:39:33;;;;;;;17.77;8.05;;;;;;;27.89;30.05;100642.31;5055427;28;20028;-63
2023/09/22 08:41:59;;;;;;;15.75;8.10;;;;;;;27.84;29.85;100642.09;5054604;28;20029;-63
2023/09/22 08:44:28;;;;;;;10.63;7.90;;;;;;;27.86;30.22;100648.25;5055068;28;20055;-63
2023/09/22 08:46:54;;;;;;;17.90;8.23;;;;;;;27.79;30.21;100637.28;5055054;28;20033;-62
2023/09/22 08:49:21;;;;;;;16.17;8.40;;;;;;;27.84;30.82;100647.59;5055029;28;20056;-62
2023/09/22 08:51:48;;;;;;;17.33;8.55;;;;;;;27.85;29.52;100643.78;5054436;28;20049;-63
2023/09/22 08:54:14;;;;;;;12.82;7.70;;;;;;;27.76;29.36;100645.97;5054856;28;20431;-61
2023/09/22 08:56:40;;;;;;;12.43;8.27;;;;;;;27.68;29.38;100649.81;5054975;28;20106;-63
2023/09/22 08:59:08;;;;;;;15.23;8.30;;;;;;;27.52;29.68;100648.38;5055322;28;20127;-62
2023/09/22 09:01:34;;;;;;;12.75;8.13;;;;;;;27.49;29.68;100644.13;5054635;28;20033;-64
2023/09/22 09:04:41;;;;;;;13.82;8.05;;;;;;;27.65;29.04;100653.81;5054865;28;20033;-63
2023/09/22 09:07:07;;;;;;;13.57;7.47;;;;;;;27.51;29.68;100632.94;5054542;28;20028;-63
2023/09/22 09:09:42;;;;;;;12.75;7.95;;;;;;;27.55;29.57;100653.44;5054748;28;20108;-64
2023/09/22 09:12:09;;;;;;;18.13;7.80;;;;;;;27.44;30.12;100626.56;5054448;28;20029;-62
2023/09/22 09:14:38;;;;;;;13.30;7.97;;;;;;;27.48;29.73;100642.44;5054993;28;20037;-63
2023/09/22 09:17:21;;;;;;;11.10;7.47;;;;;;;27.59;29.18;100640.94;5054430;28;20127;-63
2023/09/22 09:20:00;;;;;;;7.88;6.97;;;;;;;27.59;28.87;100648.34;5054364;28;20517;-63
2023/09/22 09:22:35;;;;;;;12.27;6.55;;;;;;;27.56;28.67;100646.88;5053746;28;20025;-64
2023/09/22 09:25:10;;;;;;;14.25;7.38;;;;;;;27.59;28.67;100646.44;5054558;28;20033;-63
2023/09/22 09:27:36;;;;;;;9.30;6.38;;;;;;;27.58;28.75;100638.41;5054579;28;20047;-63
2023/09/22 09:30:11;;;;;;;10.60;6.80;;;;;;;27.68;28.49;100651.69;5054069;28;20037;-64
2023/09/22 09:32:38;;;;;;;13.50;6.90;;;;;;;27.62;28.41;100640.50;5054344;28;20041;-65
2023/09/22 09:35:04;;;;;;;14.07;6.75;;;;;;;27.60;28.39;100642.63;5054262;28;20455;-61
2023/09/22 09:37:30;;;;;;;11.63;6.15;;;;;;;27.51;28.36;100638.44;5053872;28;20352;-63
2023/09/22 09:39:58;;;;;;;9.05;6.32;;;;;;;27.49;28.18;100632.25;5053463;28;20040;-63
2023/09/22 09:42:26;;;;;;;11.95;6.53;;;;;;;27.55;28.34;100647.94;5053478;28;20025;-64
2023/09/22 09:44:54;;;;;;;13.63;6.47;;;;;;;27.55;28.45;100631.44;5053711;28;20033;-63
2023/09/22 09:47:23;;;;;;;11.60;6.63;;;;;;;27.58;27.61;100624.66;5053577;28;20432;-63
2023/09/22 09:49:54;;;;;;;8.95;6.50;;;;;;;27.62;27.71;100626.75;5053299;28;20337;-63
2023/09/22 09:52:30;;;;;;;10.60;6.10;;;;;;;27.73;27.54;100627.13;5053716;28;20044;-63
2023/09/22 09:55:07;;;;;;;10.82;6.45;;;;;;;27.65;27.57;100631.00;5053257;28;20102;-64
2023/09/22 09:57:34;;;;;;;9.45;6.43;;;;;;;27.56;27.67;100630.38;5053452;28;20131;-66
2023/09/22 10:00:01;;;;;;;11.55;6.10;;;;;;;27.56;27.05;100624.03;5053331;28;20021;-63
2023/09/22 10:02:28;;;;;;;9.45;5.68;;;;;;;27.50;27.23;100623.81;5053670;28;20033;-63
2023/09/22 10:04:55;;;;;;;8.38;5.78;;;;;;;27.48;26.61;100620.44;5052811;28;20337;-64
2023/09/22 10:07:21;;;;;;;7.47;6.03;;;;;;;27.46;26.26;100625.31;5053223;28;20031;-63
2023/09/22 10:09:47;;;;;;;8.98;5.85;;;;;;;27.44;26.32;100630.19;5053111;28;20040;-64
2023/09/22 10:12:13;;;;;;;8.10;5.50;;;;;;;27.47;26.49;100628.88;5053085;28;20025;-65
2023/09/22 10:14:43;;;;;;;8.80;5.75;;;;;;;27.52;25.25;100629.13;5053296;28;20075;-64
2023/09/22 10:17:22;;;;;;;7.53;5.40;;;;;;;27.57;25.70;100626.56;5051985;28;20420;-63
2023/09/22 10:19:48;;;;;;;8.98;5.80;;;;;;;27.42;25.43;100621.31;5052274;28;20115;-64
2023/09/22 10:22:14;;;;;;;8.95;5.55;;;;;;;27.46;25.89;100627.19;5052987;28;20402;-59
2023/09/22 10:24:42;;;;;;;8.25;5.43;;;;;;;27.48;25.90;100605.81;5053967;28;20064;-64
2023/09/22 10:27:13;;;;;;;12.45;5.85;;;;;;;27.51;25.73;100608.19;5053239;28;20044;-63
2023/09/22 10:29:42;;;;;;;9.43;5.97;;;;;;;27.55;25.62;100614.94;5053660;28;20102;-64
2023/09/22 10:32:29;;;;;;;9.82;6.00;;;;;;;27.59;25.68;100621.69;5053421;28;20040;-64
2023/09/22 10:34:58;;;;;;;9.70;5.38;;;;;;;27.43;26.08;100612.00;5052922;28;20360;-65
2023/09/22 10:37:26;;;;;;;9.02;6.22;;;;;;;27.33;26.16;100603.34;5052906;28;20043;-63
2023/09/22 10:40:06;;;;;;;6.03;5.50;;;;;;;27.42;26.19;100612.19;5052947;28;20506;-67
2023/09/22 10:42:33;;;;;;;11.13;6.15;;;;;;;27.31;25.77;100600.81;5052973;28;20103;-64
2023/09/22 10:45:01;;;;;;;8.88;5.85;;;;;;;27.34;26.13;100603.13;5053083;28;20065;-64
2023/09/22 10:47:42;;;;;;;9.25;5.90;;;;;;;27.49;25.23;100613.00;5053059;28;20033;-64
2023/09/22 10:50:11;;;;;;;8.32;6.07;;;;;;;27.34;25.06;100607.78;5053121;28;20128;-64
2023/09/22 10:52:37;;;;;;;9.38;6.05;;;;;;;27.25;25.17;100601.69;5052844;28;20028;-64
2023/09/22 10:55:05;;;;;;;11.43;5.65;;;;;;;27.18;25.09;100611.84;5052801;28;20459;-64
2023/09/22 10:57:33;;;;;;;9.55;6.45;;;;;;;27.08;24.74;100598.53;5052503;28;20025;-64
2023/09/22 11:00:00;;;;;;;14.52;6.32;;;;;;;26.90;24.86;100586.34;5052910;28;20029;-63
2023/09/22 11:02:29;;;;;;;7.53;5.68;;;;;;;26.91;25.24;100606.41;5052872;28;20051;-65
2023/09/22 11:04:55;;;;;;;11.18;6.60;;;;;;;26.85;25.02;100597.09;5053074;28;20028;-63
2023/09/22 11:07:34;;;;;;;13.52;6.47;;;;;;;26.98;25.21;100628.38;5052531;28;20455;-64
2023/09/22 11:10:00;;;;;;;8.75;6.35;;;;;;;26.75;25.14;100602.16;5052827;28;20033;-63
2023/09/22 11:12:27;;;;;;;11.88;6.25;;;;;;;26.67;25.29;100599.63;5052471;28;20098;-63